sensor_id;sensor_type;location;lat;lon;timestamp;P1;durP1;ratioP1;P2;durP2;ratioP2
80146;SDS011;69472;55.812;37.638;2023-04-25T00:03:47;19.67;;;9.13;;
80146;SDS011;69472;55.812;37.638;2023-04-25T00:08:48;15.85;;;8.32;;
80146;SDS011;69472;55.812;37.638;2023-04-25T00:13:49;17.13;;;7.68;;
80146;SDS011;69472;55.812;37.638;2023-04-25T00:18:54;14.50;;;8.75;;
80146;SDS011;69472;55.812;37.638;2023-04-25T00:23:55;18.27;;;8.23;;
80146;SDS011;69472;55.812;37.638;2023-04-25T00:28:56;16.10;;;7.88;;
80146;SDS011;69472;55.812;37.638;2023-04-25T00:33:57;16.02;;;9.20;;
80146;SDS011;69472;55.812;37.638;2023-04-25T00:38:57;14.25;;;8.68;;
80146;SDS011;69472;55.812;37.638;2023-04-25T00:43:59;20.33;;;7.97;;
80146;SDS011;69472;55.812;37.638;2023-04-25T00:49:00;15.43;;;7.30;;
80146;SDS011;69472;55.812;37.638;2023-04-25T00:54:01;12.25;;;6.15;;
80146;SDS011;69472;55.812;37.638;2023-04-25T00:59:02;12.30;;;6.47;;
80146;SDS011;69472;55.812;37.638;2023-04-25T01:04:04;17.42;;;7.15;;
80146;SDS011;69472;55.812;37.638;2023-04-25T01:09:04;18.55;;;8.10;;
80146;SDS011;69472;55.812;37.638;2023-04-25T01:14:05;12.60;;;8.02;;
80146;SDS011;69472;55.812;37.638;2023-04-25T01:19:08;15.07;;;8.25;;
80146;SDS011;69472;55.812;37.638;2023-04-25T01:24:12;15.23;;;8.25;;
80146;SDS011;69472;55.812;37.638;2023-04-25T01:29:13;15.95;;;9.02;;
80146;SDS011;69472;55.812;37.638;2023-04-25T01:34:14;17.08;;;8.80;;
80146;SDS011;69472;55.812;37.638;2023-04-25T01:39:15;14.45;;;8.63;;
80146;SDS011;69472;55.812;37.638;2023-04-25T01:44:17;16.85;;;9.18;;
80146;SDS011;69472;55.812;37.638;2023-04-25T01:49:18;15.55;;;8.57;;
80146;SDS011;69472;55.812;37.638;2023-04-25T01:54:18;11.27;;;8.07;;
80146;SDS011;69472;55.812;37.638;2023-04-25T01:59:19;17.52;;;8.05;;
80146;SDS011;69472;55.812;37.638;2023-04-25T02:04:23;13.15;;;7.63;;
80146;SDS011;69472;55.812;37.638;2023-04-25T02:09:23;11.95;;;8.18;;
80146;SDS011;69472;55.812;37.638;2023-04-25T02:14:24;12.27;;;7.90;;
80146;SDS011;69472;55.812;37.638;2023-04-25T02:19:25;17.42;;;7.53;;
80146;SDS011;69472;55.812;37.638;2023-04-25T02:24:26;15.35;;;7.22;;
80146;SDS011;69472;55.812;37.638;2023-04-25T02:29:28;12.93;;;7.30;;
80146;SDS011;69472;55.812;37.638;2023-04-25T02:34:29;9.82;;;7.32;;
80146;SDS011;69472;55.812;37.638;2023-04-25T02:39:30;13.82;;;7.53;;
80146;SDS011;69472;55.812;37.638;2023-04-25T02:44:31;14.40;;;6.45;;
80146;SDS011;69472;55.812;37.638;2023-04-25T02:49:31;15.25;;;8.20;;
80146;SDS011;69472;55.812;37.638;2023-04-25T02:54:32;12.70;;;8.45;;
80146;SDS011;69472;55.812;37.638;2023-04-25T02:59:33;16.90;;;8.52;;
80146;SDS011;69472;55.812;37.638;2023-04-25T03:04:34;15.15;;;8.43;;
80146;SDS011;69472;55.812;37.638;2023-04-25T03:09:35;17.30;;;8.32;;
80146;SDS011;69472;55.812;37.638;2023-04-25T03:14:36;13.15;;;7.55;;
80146;SDS011;69472;55.812;37.638;2023-04-25T03:19:36;14.98;;;7.45;;
80146;SDS011;69472;55.812;37.638;2023-04-25T03:24:37;13.95;;;7.78;;
80146;SDS011;69472;55.812;37.638;2023-04-25T03:29:38;17.00;;;8.30;;
80146;SDS011;69472;55.812;37.638;2023-04-25T03:34:38;12.75;;;8.90;;
80146;SDS011;69472;55.812;37.638;2023-04-25T03:39:40;14.05;;;8.80;;
80146;SDS011;69472;55.812;37.638;2023-04-25T03:44:40;11.98;;;8.35;;
80146;SDS011;69472;55.812;37.638;2023-04-25T03:49:41;14.55;;;8.60;;
80146;SDS011;69472;55.812;37.638;2023-04-25T03:54:42;18.33;;;8.20;;
80146;SDS011;69472;55.812;37.638;2023-04-25T03:59:42;14.95;;;9.30;;
80146;SDS011;69472;55.812;37.638;2023-04-25T04:04:44;15.82;;;9.70;;
80146;SDS011;69472;55.812;37.638;2023-04-25T04:09:45;16.83;;;9.38;;
80146;SDS011;69472;55.812;37.638;2023-04-25T04:14:46;19.88;;;10.85;;
80146;SDS011;69472;55.812;37.638;2023-04-25T04:19:46;17.08;;;11.73;;
80146;SDS011;69472;55.812;37.638;2023-04-25T04:24:47;20.88;;;12.20;;
80146;SDS011;69472;55.812;37.638;2023-04-25T04:29:49;16.88;;;10.77;;
80146;SDS011;69472;55.812;37.638;2023-04-25T04:34:52;21.20;;;12.32;;
80146;SDS011;69472;55.812;37.638;2023-04-25T04:39:55;17.67;;;11.02;;
80146;SDS011;69472;55.812;37.638;2023-04-25T04:44:56;20.55;;;11.20;;
80146;SDS011;69472;55.812;37.638;2023-04-25T04:49:58;19.30;;;12.68;;
80146;SDS011;69472;55.812;37.638;2023-04-25T04:54:59;19.05;;;10.23;;
80146;SDS011;69472;55.812;37.638;2023-04-25T05:00:00;17.90;;;12.20;;
80146;SDS011;69472;55.812;37.638;2023-04-25T05:05:01;21.52;;;10.95;;
80146;SDS011;69472;55.812;37.638;2023-04-25T05:10:02;15.30;;;9.93;;
80146;SDS011;69472;55.812;37.638;2023-04-25T05:15:04;14.45;;;11.75;;
80146;SDS011;69472;55.812;37.638;2023-04-25T05:20:07;18.42;;;9.75;;
80146;SDS011;69472;55.812;37.638;2023-04-25T05:25:11;13.65;;;9.32;;
80146;SDS011;69472;55.812;37.638;2023-04-25T05:30:12;17.15;;;9.55;;
80146;SDS011;69472;55.812;37.638;2023-04-25T05:35:13;9.45;;;7.88;;
80146;SDS011;69472;55.812;37.638;2023-04-25T05:40:14;15.35;;;8.60;;
80146;SDS011;69472;55.812;37.638;2023-04-25T05:45:15;17.23;;;8.10;;
80146;SDS011;69472;55.812;37.638;2023-04-25T05:50:17;26.02;;;9.57;;
80146;SDS011;69472;55.812;37.638;2023-04-25T05:55:18;11.48;;;8.00;;
80146;SDS011;69472;55.812;37.638;2023-04-25T06:00:19;14.30;;;9.10;;
80146;SDS011;69472;55.812;37.638;2023-04-25T06:05:22;16.33;;;8.80;;
80146;SDS011;69472;55.812;37.638;2023-04-25T06:10:23;12.75;;;8.30;;
80146;SDS011;69472;55.812;37.638;2023-04-25T06:15:23;13.63;;;8.85;;
80146;SDS011;69472;55.812;37.638;2023-04-25T06:20:24;12.45;;;9.23;;
80146;SDS011;69472;55.812;37.638;2023-04-25T06:25:25;15.52;;;9.35;;
80146;SDS011;69472;55.812;37.638;2023-04-25T06:30:26;11.52;;;8.07;;
80146;SDS011;69472;55.812;37.638;2023-04-25T06:35:26;12.63;;;8.63;;
80146;SDS011;69472;55.812;37.638;2023-04-25T06:40:27;15.40;;;8.63;;
80146;SDS011;69472;55.812;37.638;2023-04-25T06:50:28;14.80;;;8.52;;
80146;SDS011;69472;55.812;37.638;2023-04-25T06:55:30;11.73;;;7.93;;
80146;SDS011;69472;55.812;37.638;2023-04-25T07:00:30;15.48;;;7.90;;
80146;SDS011;69472;55.812;37.638;2023-04-25T07:05:32;13.38;;;7.53;;
80146;SDS011;69472;55.812;37.638;2023-04-25T07:10:32;12.88;;;7.13;;
80146;SDS011;69472;55.812;37.638;2023-04-25T07:15:33;11.32;;;7.32;;
80146;SDS011;69472;55.812;37.638;2023-04-25T07:20:34;12.98;;;6.95;;
80146;SDS011;69472;55.812;37.638;2023-04-25T07:25:35;13.85;;;7.03;;
80146;SDS011;69472;55.812;37.638;2023-04-25T07:30:35;7.40;;;5.43;;
80146;SDS011;69472;55.812;37.638;2023-04-25T07:35:36;11.00;;;5.85;;
80146;SDS011;69472;55.812;37.638;2023-04-25T07:40:37;7.38;;;6.13;;
80146;SDS011;69472;55.812;37.638;2023-04-25T07:45:38;10.20;;;5.78;;
80146;SDS011;69472;55.812;37.638;2023-04-25T07:50:38;10.57;;;6.75;;
80146;SDS011;69472;55.812;37.638;2023-04-25T07:55:39;9.77;;;7.28;;
80146;SDS011;69472;55.812;37.638;2023-04-25T08:00:40;10.15;;;7.22;;
80146;SDS011;69472;55.812;37.638;2023-04-25T08:05:42;10.98;;;6.53;;
80146;SDS011;69472;55.812;37.638;2023-04-25T08:10:42;14.73;;;6.22;;
80146;SDS011;69472;55.812;37.638;2023-04-25T08:15:43;9.20;;;5.60;;
80146;SDS011;69472;55.812;37.638;2023-04-25T08:20:44;8.88;;;5.60;;
80146;SDS011;69472;55.812;37.638;2023-04-25T08:25:45;7.07;;;5.57;;
80146;SDS011;69472;55.812;37.638;2023-04-25T08:30:46;12.68;;;6.18;;
80146;SDS011;69472;55.812;37.638;2023-04-25T08:35:46;10.00;;;5.97;;
80146;SDS011;69472;55.812;37.638;2023-04-25T08:40:49;7.28;;;5.15;;
80146;SDS011;69472;55.812;37.638;2023-04-25T08:45:53;9.95;;;5.25;;
80146;SDS011;69472;55.812;37.638;2023-04-25T08:51:01;8.15;;;4.55;;
80146;SDS011;69472;55.812;37.638;2023-04-25T08:56:04;12.68;;;4.60;;
80146;SDS011;69472;55.812;37.638;2023-04-25T09:01:06;10.05;;;4.45;;
80146;SDS011;69472;55.812;37.638;2023-04-25T09:06:06;10.60;;;4.50;;
80146;SDS011;69472;55.812;37.638;2023-04-25T09:11:08;11.55;;;4.68;;
80146;SDS011;69472;55.812;37.638;2023-04-25T09:16:09;8.60;;;4.72;;
80146;SDS011;69472;55.812;37.638;2023-04-25T09:21:10;8.23;;;5.20;;
80146;SDS011;69472;55.812;37.638;2023-04-25T09:26:19;8.25;;;4.65;;
80146;SDS011;69472;55.812;37.638;2023-04-25T09:31:21;10.95;;;5.05;;
80146;SDS011;69472;55.812;37.638;2023-04-25T09:36:25;7.10;;;5.05;;
80146;SDS011;69472;55.812;37.638;2023-04-25T09:41:27;12.07;;;5.28;;
80146;SDS011;69472;55.812;37.638;2023-04-25T09:46:32;6.90;;;5.22;;
80146;SDS011;69472;55.812;37.638;2023-04-25T09:51:34;9.05;;;5.57;;
80146;SDS011;69472;55.812;37.638;2023-04-25T09:56:36;7.43;;;4.60;;
80146;SDS011;69472;55.812;37.638;2023-04-25T10:01:37;6.30;;;3.78;;
80146;SDS011;69472;55.812;37.638;2023-04-25T10:06:41;6.00;;;3.95;;
80146;SDS011;69472;55.812;37.638;2023-04-25T10:21:53;6.00;;;4.72;;
80146;SDS011;69472;55.812;37.638;2023-04-25T10:27:00;7.35;;;4.03;;
80146;SDS011;69472;55.812;37.638;2023-04-25T10:32:02;9.05;;;3.65;;
80146;SDS011;69472;55.812;37.638;2023-04-25T10:37:03;7.43;;;4.90;;
80146;SDS011;69472;55.812;37.638;2023-04-25T10:42:03;4.90;;;3.42;;
80146;SDS011;69472;55.812;37.638;2023-04-25T10:47:05;7.00;;;4.15;;
80146;SDS011;69472;55.812;37.638;2023-04-25T10:52:11;5.70;;;4.22;;
80146;SDS011;69472;55.812;37.638;2023-04-25T10:57:27;5.25;;;3.25;;
80146;SDS011;69472;55.812;37.638;2023-04-25T11:02:36;6.18;;;3.90;;
80146;SDS011;69472;55.812;37.638;2023-04-25T11:07:49;5.40;;;3.88;;
80146;SDS011;69472;55.812;37.638;2023-04-25T11:12:51;6.70;;;3.25;;
80146;SDS011;69472;55.812;37.638;2023-04-25T11:17:52;5.78;;;2.90;;
80146;SDS011;69472;55.812;37.638;2023-04-25T11:27:57;6.32;;;2.80;;
80146;SDS011;69472;55.812;37.638;2023-04-25T11:32:59;6.60;;;3.15;;
80146;SDS011;69472;55.812;37.638;2023-04-25T11:38:00;7.95;;;2.92;;
80146;SDS011;69472;55.812;37.638;2023-04-25T11:43:01;4.25;;;2.80;;
80146;SDS011;69472;55.812;37.638;2023-04-25T11:48:02;6.18;;;3.92;;
80146;SDS011;69472;55.812;37.638;2023-04-25T11:53:03;6.03;;;3.03;;
80146;SDS011;69472;55.812;37.638;2023-04-25T11:58:04;4.85;;;3.30;;
80146;SDS011;69472;55.812;37.638;2023-04-25T12:03:05;4.65;;;2.90;;
80146;SDS011;69472;55.812;37.638;2023-04-25T12:08:10;8.85;;;3.42;;
80146;SDS011;69472;55.812;37.638;2023-04-25T12:13:22;5.03;;;3.30;;
80146;SDS011;69472;55.812;37.638;2023-04-25T12:18:24;2.83;;;2.28;;
80146;SDS011;69472;55.812;37.638;2023-04-25T12:23:28;5.82;;;2.47;;
80146;SDS011;69472;55.812;37.638;2023-04-25T12:28:31;5.30;;;2.67;;
80146;SDS011;69472;55.812;37.638;2023-04-25T12:33:33;7.45;;;2.80;;
80146;SDS011;69472;55.812;37.638;2023-04-25T12:38:42;3.80;;;2.42;;
80146;SDS011;69472;55.812;37.638;2023-04-25T12:43:43;4.38;;;3.65;;
80146;SDS011;69472;55.812;37.638;2023-04-25T12:48:43;7.53;;;2.95;;
80146;SDS011;69472;55.812;37.638;2023-04-25T12:53:44;5.40;;;3.50;;
80146;SDS011;69472;55.812;37.638;2023-04-25T12:58:45;6.57;;;2.95;;
80146;SDS011;69472;55.812;37.638;2023-04-25T13:03:46;7.30;;;2.80;;
80146;SDS011;69472;55.812;37.638;2023-04-25T13:08:48;5.40;;;3.05;;
80146;SDS011;69472;55.812;37.638;2023-04-25T13:13:48;6.20;;;2.80;;
80146;SDS011;69472;55.812;37.638;2023-04-25T13:18:49;7.70;;;4.43;;
80146;SDS011;69472;55.812;37.638;2023-04-25T13:23:50;6.32;;;3.63;;
80146;SDS011;69472;55.812;37.638;2023-04-25T13:28:50;5.88;;;3.50;;
80146;SDS011;69472;55.812;37.638;2023-04-25T13:33:51;7.18;;;4.60;;
80146;SDS011;69472;55.812;37.638;2023-04-25T13:38:52;5.53;;;3.60;;
80146;SDS011;69472;55.812;37.638;2023-04-25T13:43:52;9.25;;;5.00;;
80146;SDS011;69472;55.812;37.638;2023-04-25T13:48:53;10.15;;;4.07;;
80146;SDS011;69472;55.812;37.638;2023-04-25T13:53:54;5.80;;;4.13;;
80146;SDS011;69472;55.812;37.638;2023-04-25T13:58:54;6.25;;;3.28;;
80146;SDS011;69472;55.812;37.638;2023-04-25T14:03:55;8.07;;;4.53;;
80146;SDS011;69472;55.812;37.638;2023-04-25T14:08:56;6.88;;;3.75;;
80146;SDS011;69472;55.812;37.638;2023-04-25T14:13:56;3.58;;;2.78;;
80146;SDS011;69472;55.812;37.638;2023-04-25T14:18:58;12.02;;;4.43;;
80146;SDS011;69472;55.812;37.638;2023-04-25T14:23:59;12.23;;;4.80;;
80146;SDS011;69472;55.812;37.638;2023-04-25T14:28:59;6.32;;;4.35;;
80146;SDS011;69472;55.812;37.638;2023-04-25T14:34:01;9.00;;;4.70;;
80146;SDS011;69472;55.812;37.638;2023-04-25T14:39:02;6.72;;;4.03;;
80146;SDS011;69472;55.812;37.638;2023-04-25T14:44:05;12.25;;;5.60;;
80146;SDS011;69472;55.812;37.638;2023-04-25T14:49:06;18.85;;;6.57;;
80146;SDS011;69472;55.812;37.638;2023-04-25T14:54:07;5.38;;;4.45;;
80146;SDS011;69472;55.812;37.638;2023-04-25T14:59:07;9.98;;;5.57;;
80146;SDS011;69472;55.812;37.638;2023-04-25T15:04:08;7.18;;;4.55;;
80146;SDS011;69472;55.812;37.638;2023-04-25T15:09:09;10.38;;;4.38;;
80146;SDS011;69472;55.812;37.638;2023-04-25T15:14:10;7.10;;;4.32;;
80146;SDS011;69472;55.812;37.638;2023-04-25T15:19:11;6.82;;;4.65;;
80146;SDS011;69472;55.812;37.638;2023-04-25T15:24:11;5.10;;;3.47;;
80146;SDS011;69472;55.812;37.638;2023-04-25T15:29:14;12.18;;;2.65;;
80146;SDS011;69472;55.812;37.638;2023-04-25T15:34:15;4.55;;;3.30;;
80146;SDS011;69472;55.812;37.638;2023-04-25T15:39:16;5.32;;;3.30;;
80146;SDS011;69472;55.812;37.638;2023-04-25T15:44:16;5.28;;;3.20;;
80146;SDS011;69472;55.812;37.638;2023-04-25T15:49:17;5.60;;;4.15;;
80146;SDS011;69472;55.812;37.638;2023-04-25T15:54:20;11.80;;;4.63;;
80146;SDS011;69472;55.812;37.638;2023-04-25T15:59:21;5.90;;;3.28;;
80146;SDS011;69472;55.812;37.638;2023-04-25T16:04:22;6.45;;;4.03;;
80146;SDS011;69472;55.812;37.638;2023-04-25T16:09:24;7.65;;;4.75;;
80146;SDS011;69472;55.812;37.638;2023-04-25T16:14:24;5.50;;;4.30;;
80146;SDS011;69472;55.812;37.638;2023-04-25T16:19:25;6.43;;;3.53;;
80146;SDS011;69472;55.812;37.638;2023-04-25T16:24:26;4.88;;;2.88;;
80146;SDS011;69472;55.812;37.638;2023-04-25T16:29:27;7.20;;;3.20;;
80146;SDS011;69472;55.812;37.638;2023-04-25T16:34:27;6.30;;;4.55;;
80146;SDS011;69472;55.812;37.638;2023-04-25T16:39:28;4.50;;;3.53;;
80146;SDS011;69472;55.812;37.638;2023-04-25T16:44:29;5.22;;;3.90;;
80146;SDS011;69472;55.812;37.638;2023-04-25T16:49:30;5.53;;;2.95;;
80146;SDS011;69472;55.812;37.638;2023-04-25T16:54:31;6.13;;;3.42;;
80146;SDS011;69472;55.812;37.638;2023-04-25T16:59:31;5.25;;;2.92;;
80146;SDS011;69472;55.812;37.638;2023-04-25T17:04:32;5.13;;;3.28;;
80146;SDS011;69472;55.812;37.638;2023-04-25T17:09:33;6.45;;;3.72;;
80146;SDS011;69472;55.812;37.638;2023-04-25T17:14:34;7.78;;;3.70;;
80146;SDS011;69472;55.812;37.638;2023-04-25T17:19:36;4.65;;;3.50;;
80146;SDS011;69472;55.812;37.638;2023-04-25T17:24:36;5.78;;;4.20;;
80146;SDS011;69472;55.812;37.638;2023-04-25T17:29:39;5.07;;;3.60;;
80146;SDS011;69472;55.812;37.638;2023-04-25T17:34:40;7.55;;;3.80;;
80146;SDS011;69472;55.812;37.638;2023-04-25T17:39:43;9.70;;;3.47;;
80146;SDS011;69472;55.812;37.638;2023-04-25T17:44:44;15.23;;;3.03;;
80146;SDS011;69472;55.812;37.638;2023-04-25T17:49:44;9.07;;;3.38;;
80146;SDS011;69472;55.812;37.638;2023-04-25T17:54:45;3.63;;;2.20;;
80146;SDS011;69472;55.812;37.638;2023-04-25T17:59:46;6.20;;;3.17;;
80146;SDS011;69472;55.812;37.638;2023-04-25T18:04:46;5.13;;;3.00;;
80146;SDS011;69472;55.812;37.638;2023-04-25T18:09:47;5.57;;;2.80;;
80146;SDS011;69472;55.812;37.638;2023-04-25T18:14:48;6.30;;;2.95;;
80146;SDS011;69472;55.812;37.638;2023-04-25T18:19:48;6.38;;;3.42;;
80146;SDS011;69472;55.812;37.638;2023-04-25T18:24:50;7.80;;;3.65;;
80146;SDS011;69472;55.812;37.638;2023-04-25T18:29:50;5.38;;;4.00;;
80146;SDS011;69472;55.812;37.638;2023-04-25T18:34:53;4.57;;;3.53;;
80146;SDS011;69472;55.812;37.638;2023-04-25T18:39:54;5.25;;;4.05;;
80146;SDS011;69472;55.812;37.638;2023-04-25T18:44:55;6.25;;;3.67;;
80146;SDS011;69472;55.812;37.638;2023-04-25T18:49:55;5.63;;;3.22;;
80146;SDS011;69472;55.812;37.638;2023-04-25T18:54:56;5.70;;;3.05;;
80146;SDS011;69472;55.812;37.638;2023-04-25T18:59:57;6.95;;;4.13;;
80146;SDS011;69472;55.812;37.638;2023-04-25T19:04:58;5.95;;;3.92;;
80146;SDS011;69472;55.812;37.638;2023-04-25T19:09:58;6.30;;;4.53;;
80146;SDS011;69472;55.812;37.638;2023-04-25T19:14:59;8.60;;;4.78;;
80146;SDS011;69472;55.812;37.638;2023-04-25T19:20:01;5.80;;;4.10;;
80146;SDS011;69472;55.812;37.638;2023-04-25T19:25:02;7.70;;;4.15;;
80146;SDS011;69472;55.812;37.638;2023-04-25T19:35:10;7.22;;;3.80;;
80146;SDS011;69472;55.812;37.638;2023-04-25T19:40:12;8.23;;;3.50;;
80146;SDS011;69472;55.812;37.638;2023-04-25T19:45:13;10.65;;;4.43;;
80146;SDS011;69472;55.812;37.638;2023-04-25T19:50:14;6.57;;;3.78;;
80146;SDS011;69472;55.812;37.638;2023-04-25T19:55:15;3.42;;;2.42;;
80146;SDS011;69472;55.812;37.638;2023-04-25T20:00:18;5.22;;;3.30;;
80146;SDS011;69472;55.812;37.638;2023-04-25T20:05:20;3.80;;;2.17;;
80146;SDS011;69472;55.812;37.638;2023-04-25T20:10:22;3.95;;;2.80;;
80146;SDS011;69472;55.812;37.638;2023-04-25T20:15:23;4.00;;;3.28;;
80146;SDS011;69472;55.812;37.638;2023-04-25T20:20:24;4.35;;;3.15;;
80146;SDS011;69472;55.812;37.638;2023-04-25T20:25:25;4.47;;;2.47;;
80146;SDS011;69472;55.812;37.638;2023-04-25T20:30:26;3.70;;;2.90;;
80146;SDS011;69472;55.812;37.638;2023-04-25T20:35:27;2.97;;;2.10;;
80146;SDS011;69472;55.812;37.638;2023-04-25T20:40:27;4.82;;;3.03;;
80146;SDS011;69472;55.812;37.638;2023-04-25T20:45:28;3.70;;;2.80;;
80146;SDS011;69472;55.812;37.638;2023-04-25T20:50:31;5.28;;;3.50;;
80146;SDS011;69472;55.812;37.638;2023-04-25T20:55:33;6.05;;;3.03;;
80146;SDS011;69472;55.812;37.638;2023-04-25T21:00:34;3.95;;;3.20;;
80146;SDS011;69472;55.812;37.638;2023-04-25T21:05:35;4.10;;;2.90;;
80146;SDS011;69472;55.812;37.638;2023-04-25T21:10:36;3.83;;;3.00;;
80146;SDS011;69472;55.812;37.638;2023-04-25T21:15:36;4.57;;;3.13;;
80146;SDS011;69472;55.812;37.638;2023-04-25T21:20:37;5.00;;;3.15;;
80146;SDS011;69472;55.812;37.638;2023-04-25T21:25:38;5.63;;;2.53;;
80146;SDS011;69472;55.812;37.638;2023-04-25T21:30:39;3.00;;;2.35;;
80146;SDS011;69472;55.812;37.638;2023-04-25T21:35:41;4.90;;;3.22;;
80146;SDS011;69472;55.812;37.638;2023-04-25T21:40:42;4.45;;;2.65;;
80146;SDS011;69472;55.812;37.638;2023-04-25T21:45:43;3.95;;;2.80;;
80146;SDS011;69472;55.812;37.638;2023-04-25T21:50:43;3.85;;;2.85;;
80146;SDS011;69472;55.812;37.638;2023-04-25T21:55:44;5.05;;;3.47;;
80146;SDS011;69472;55.812;37.638;2023-04-25T22:00:45;4.47;;;3.10;;
80146;SDS011;69472;55.812;37.638;2023-04-25T22:05:46;4.63;;;3.20;;
80146;SDS011;69472;55.812;37.638;2023-04-25T22:10:47;5.82;;;3.38;;
80146;SDS011;69472;55.812;37.638;2023-04-25T22:15:48;4.35;;;3.22;;
80146;SDS011;69472;55.812;37.638;2023-04-25T22:20:48;4.55;;;3.53;;
80146;SDS011;69472;55.812;37.638;2023-04-25T22:25:49;4.45;;;3.60;;
80146;SDS011;69472;55.812;37.638;2023-04-25T22:30:50;6.82;;;3.95;;
80146;SDS011;69472;55.812;37.638;2023-04-25T22:35:51;6.13;;;3.83;;
80146;SDS011;69472;55.812;37.638;2023-04-25T22:40:51;8.63;;;3.42;;
80146;SDS011;69472;55.812;37.638;2023-04-25T22:45:52;4.90;;;2.92;;
80146;SDS011;69472;55.812;37.638;2023-04-25T22:51:02;6.78;;;3.47;;
80146;SDS011;69472;55.812;37.638;2023-04-25T22:56:08;5.50;;;3.47;;
80146;SDS011;69472;55.812;37.638;2023-04-25T23:01:09;8.07;;;3.60;;
80146;SDS011;69472;55.812;37.638;2023-04-25T23:06:10;8.02;;;3.20;;
80146;SDS011;69472;55.812;37.638;2023-04-25T23:11:12;5.25;;;2.92;;
80146;SDS011;69472;55.812;37.638;2023-04-25T23:16:13;4.40;;;3.35;;
80146;SDS011;69472;55.812;37.638;2023-04-25T23:21:14;6.22;;;3.22;;
80146;SDS011;69472;55.812;37.638;2023-04-25T23:26:14;6.38;;;3.78;;
80146;SDS011;69472;55.812;37.638;2023-04-25T23:31:15;5.25;;;3.42;;
80146;SDS011;69472;55.812;37.638;2023-04-25T23:36:17;7.22;;;3.83;;
80146;SDS011;69472;55.812;37.638;2023-04-25T23:41:20;6.20;;;3.53;;
80146;SDS011;69472;55.812;37.638;2023-04-25T23:46:22;6.25;;;3.67;;
80146;SDS011;69472;55.812;37.638;2023-04-25T23:51:22;7.75;;;3.65;;
80146;SDS011;69472;55.812;37.638;2023-04-25T23:56:24;5.70;;;3.72;;
